sensor_id;sensor_type;location;lat;lon;timestamp;P1;durP1;ratioP1;P2;durP2;ratioP2
79330;SDS011;68797;49.782;19.054;2023-07-31T00:01:08;2.65;;;1.75;;
79330;SDS011;68797;49.782;19.054;2023-07-31T00:03:57;3.50;;;1.90;;
79330;SDS011;68797;49.782;19.054;2023-07-31T00:06:52;3.72;;;2.13;;
79330;SDS011;68797;49.782;19.054;2023-07-31T00:09:27;3.55;;;1.95;;
79330;SDS011;68797;49.782;19.054;2023-07-31T00:12:14;2.22;;;1.55;;
79330;SDS011;68797;49.782;19.054;2023-07-31T00:15:13;3.13;;;1.90;;
79330;SDS011;68797;49.782;19.054;2023-07-31T00:18:16;2.15;;;1.60;;
79330;SDS011;68797;49.782;19.054;2023-07-31T00:20:57;2.10;;;1.70;;
79330;SDS011;68797;49.782;19.054;2023-07-31T00:23:40;3.60;;;1.95;;
79330;SDS011;68797;49.782;19.054;2023-07-31T00:26:31;3.00;;;1.73;;
79330;SDS011;68797;49.782;19.054;2023-07-31T00:29:14;2.90;;;2.00;;
79330;SDS011;68797;49.782;19.054;2023-07-31T00:31:55;2.65;;;1.83;;
79330;SDS011;68797;49.782;19.054;2023-07-31T00:34:35;2.20;;;1.77;;
79330;SDS011;68797;49.782;19.054;2023-07-31T00:37:16;2.55;;;1.92;;
79330;SDS011;68797;49.782;19.054;2023-07-31T00:40:11;2.78;;;2.03;;
79330;SDS011;68797;49.782;19.054;2023-07-31T00:42:45;2.05;;;1.65;;
79330;SDS011;68797;49.782;19.054;2023-07-31T00:45:31;2.80;;;1.67;;
79330;SDS011;68797;49.782;19.054;2023-07-31T00:48:06;2.55;;;1.65;;
79330;SDS011;68797;49.782;19.054;2023-07-31T00:50:38;2.47;;;1.67;;
79330;SDS011;68797;49.782;19.054;2023-07-31T00:53:43;1.77;;;1.48;;
79330;SDS011;68797;49.782;19.054;2023-07-31T00:56:24;2.42;;;1.73;;
79330;SDS011;68797;49.782;19.054;2023-07-31T00:59:00;4.07;;;1.60;;
79330;SDS011;68797;49.782;19.054;2023-07-31T01:04:34;2.40;;;1.58;;
79330;SDS011;68797;49.782;19.054;2023-07-31T01:10:49;3.95;;;1.95;;
79330;SDS011;68797;49.782;19.054;2023-07-31T01:13:36;1.67;;;1.40;;
79330;SDS011;68797;49.782;19.054;2023-07-31T01:16:13;3.45;;;2.40;;
79330;SDS011;68797;49.782;19.054;2023-07-31T01:18:45;2.38;;;1.52;;
79330;SDS011;68797;49.782;19.054;2023-07-31T01:28:11;3.10;;;1.80;;
79330;SDS011;68797;49.782;19.054;2023-07-31T01:31:14;2.47;;;1.80;;
79330;SDS011;68797;49.782;19.054;2023-07-31T01:33:58;2.10;;;1.67;;
79330;SDS011;68797;49.782;19.054;2023-07-31T01:36:47;2.17;;;1.52;;
79330;SDS011;68797;49.782;19.054;2023-07-31T01:39:32;2.42;;;1.83;;
79330;SDS011;68797;49.782;19.054;2023-07-31T01:42:08;2.75;;;1.80;;
79330;SDS011;68797;49.782;19.054;2023-07-31T01:44:48;3.13;;;2.17;;
79330;SDS011;68797;49.782;19.054;2023-07-31T01:47:30;4.70;;;2.05;;
79330;SDS011;68797;49.782;19.054;2023-07-31T01:50:01;4.13;;;1.70;;
79330;SDS011;68797;49.782;19.054;2023-07-31T01:52:47;3.13;;;2.00;;
79330;SDS011;68797;49.782;19.054;2023-07-31T01:55:32;4.05;;;2.22;;
79330;SDS011;68797;49.782;19.054;2023-07-31T01:58:31;3.67;;;2.10;;
79330;SDS011;68797;49.782;19.054;2023-07-31T02:01:06;3.22;;;1.67;;
79330;SDS011;68797;49.782;19.054;2023-07-31T02:03:45;2.83;;;1.98;;
79330;SDS011;68797;49.782;19.054;2023-07-31T02:06:40;2.17;;;1.77;;
79330;SDS011;68797;49.782;19.054;2023-07-31T02:11:38;2.40;;;1.73;;
79330;SDS011;68797;49.782;19.054;2023-07-31T02:14:45;3.50;;;2.38;;
79330;SDS011;68797;49.782;19.054;2023-07-31T02:17:28;3.50;;;2.22;;
79330;SDS011;68797;49.782;19.054;2023-07-31T02:20:09;3.60;;;1.98;;
79330;SDS011;68797;49.782;19.054;2023-07-31T02:23:11;3.95;;;1.92;;
79330;SDS011;68797;49.782;19.054;2023-07-31T02:25:56;2.78;;;1.90;;
79330;SDS011;68797;49.782;19.054;2023-07-31T02:31:33;4.13;;;2.35;;
79330;SDS011;68797;49.782;19.054;2023-07-31T02:34:33;3.20;;;2.00;;
79330;SDS011;68797;49.782;19.054;2023-07-31T02:37:28;5.00;;;2.38;;
79330;SDS011;68797;49.782;19.054;2023-07-31T02:42:36;3.42;;;1.95;;
79330;SDS011;68797;49.782;19.054;2023-07-31T02:45:11;4.53;;;1.98;;
79330;SDS011;68797;49.782;19.054;2023-07-31T02:47:43;4.40;;;2.30;;
79330;SDS011;68797;49.782;19.054;2023-07-31T02:50:13;4.32;;;2.30;;
79330;SDS011;68797;49.782;19.054;2023-07-31T02:52:50;2.83;;;1.90;;
79330;SDS011;68797;49.782;19.054;2023-07-31T02:55:30;2.78;;;2.00;;
79330;SDS011;68797;49.782;19.054;2023-07-31T02:58:07;2.80;;;2.15;;
79330;SDS011;68797;49.782;19.054;2023-07-31T03:00:50;2.83;;;2.00;;
79330;SDS011;68797;49.782;19.054;2023-07-31T03:03:21;3.97;;;2.10;;
79330;SDS011;68797;49.782;19.054;2023-07-31T03:06:13;3.63;;;2.08;;
79330;SDS011;68797;49.782;19.054;2023-07-31T03:08:46;3.90;;;2.10;;
79330;SDS011;68797;49.782;19.054;2023-07-31T03:11:24;3.97;;;2.50;;
79330;SDS011;68797;49.782;19.054;2023-07-31T03:14:05;3.00;;;2.05;;
79330;SDS011;68797;49.782;19.054;2023-07-31T03:16:38;2.83;;;2.00;;
79330;SDS011;68797;49.782;19.054;2023-07-31T03:19:15;3.85;;;2.30;;
79330;SDS011;68797;49.782;19.054;2023-07-31T03:21:57;4.22;;;2.30;;
79330;SDS011;68797;49.782;19.054;2023-07-31T03:24:35;3.67;;;2.50;;
79330;SDS011;68797;49.782;19.054;2023-07-31T03:27:15;6.28;;;2.88;;
79330;SDS011;68797;49.782;19.054;2023-07-31T03:29:50;4.68;;;2.72;;
79330;SDS011;68797;49.782;19.054;2023-07-31T03:34:51;4.93;;;2.65;;
79330;SDS011;68797;49.782;19.054;2023-07-31T03:37:23;3.15;;;2.33;;
79330;SDS011;68797;49.782;19.054;2023-07-31T03:39:59;3.25;;;2.58;;
79330;SDS011;68797;49.782;19.054;2023-07-31T03:42:31;4.22;;;2.65;;
79330;SDS011;68797;49.782;19.054;2023-07-31T03:47:53;5.25;;;2.10;;
79330;SDS011;68797;49.782;19.054;2023-07-31T03:50:31;3.40;;;1.95;;
79330;SDS011;68797;49.782;19.054;2023-07-31T03:53:05;2.95;;;2.13;;
79330;SDS011;68797;49.782;19.054;2023-07-31T03:55:37;2.80;;;2.10;;
79330;SDS011;68797;49.782;19.054;2023-07-31T03:58:07;4.90;;;2.50;;
79330;SDS011;68797;49.782;19.054;2023-07-31T04:00:44;2.90;;;2.13;;
79330;SDS011;68797;49.782;19.054;2023-07-31T04:03:17;4.00;;;2.20;;
79330;SDS011;68797;49.782;19.054;2023-07-31T04:05:50;4.93;;;2.50;;
79330;SDS011;68797;49.782;19.054;2023-07-31T04:08:23;5.25;;;2.45;;
79330;SDS011;68797;49.782;19.054;2023-07-31T04:11:05;4.55;;;2.03;;
79330;SDS011;68797;49.782;19.054;2023-07-31T04:13:38;4.40;;;2.60;;
79330;SDS011;68797;49.782;19.054;2023-07-31T04:16:14;3.25;;;2.58;;
79330;SDS011;68797;49.782;19.054;2023-07-31T04:18:43;5.63;;;2.85;;
79330;SDS011;68797;49.782;19.054;2023-07-31T04:21:10;5.93;;;2.38;;
79330;SDS011;68797;49.782;19.054;2023-07-31T04:23:57;3.90;;;2.60;;
79330;SDS011;68797;49.782;19.054;2023-07-31T04:26:34;3.83;;;2.45;;
79330;SDS011;68797;49.782;19.054;2023-07-31T04:29:09;3.88;;;2.35;;
79330;SDS011;68797;49.782;19.054;2023-07-31T04:31:52;4.05;;;2.33;;
79330;SDS011;68797;49.782;19.054;2023-07-31T04:34:24;4.85;;;2.88;;
79330;SDS011;68797;49.782;19.054;2023-07-31T04:37:07;6.15;;;2.50;;
79330;SDS011;68797;49.782;19.054;2023-07-31T04:39:51;4.75;;;2.70;;
79330;SDS011;68797;49.782;19.054;2023-07-31T04:42:44;3.33;;;2.33;;
79330;SDS011;68797;49.782;19.054;2023-07-31T04:45:17;3.60;;;2.63;;
79330;SDS011;68797;49.782;19.054;2023-07-31T04:47:50;5.03;;;2.72;;
79330;SDS011;68797;49.782;19.054;2023-07-31T04:50:34;4.82;;;2.53;;
79330;SDS011;68797;49.782;19.054;2023-07-31T04:53:05;3.30;;;2.67;;
79330;SDS011;68797;49.782;19.054;2023-07-31T04:56:21;6.25;;;2.72;;
79330;SDS011;68797;49.782;19.054;2023-07-31T05:02:02;4.72;;;3.45;;
79330;SDS011;68797;49.782;19.054;2023-07-31T05:05:02;5.55;;;2.90;;
79330;SDS011;68797;49.782;19.054;2023-07-31T05:07:48;6.15;;;2.92;;
79330;SDS011;68797;49.782;19.054;2023-07-31T05:10:26;3.75;;;2.60;;
79330;SDS011;68797;49.782;19.054;2023-07-31T05:13:14;3.63;;;2.40;;
79330;SDS011;68797;49.782;19.054;2023-07-31T05:15:58;5.15;;;2.65;;
79330;SDS011;68797;49.782;19.054;2023-07-31T05:18:41;5.35;;;2.78;;
79330;SDS011;68797;49.782;19.054;2023-07-31T05:21:26;4.07;;;2.70;;
79330;SDS011;68797;49.782;19.054;2023-07-31T05:23:58;4.65;;;2.50;;
79330;SDS011;68797;49.782;19.054;2023-07-31T05:27:00;3.08;;;2.13;;
79330;SDS011;68797;49.782;19.054;2023-07-31T05:29:35;3.15;;;2.30;;
79330;SDS011;68797;49.782;19.054;2023-07-31T05:32:41;6.03;;;3.03;;
79330;SDS011;68797;49.782;19.054;2023-07-31T05:35:36;4.22;;;2.45;;
79330;SDS011;68797;49.782;19.054;2023-07-31T05:41:39;3.38;;;2.40;;
79330;SDS011;68797;49.782;19.054;2023-07-31T05:44:38;5.10;;;2.85;;
79330;SDS011;68797;49.782;19.054;2023-07-31T05:47:19;4.28;;;2.20;;
79330;SDS011;68797;49.782;19.054;2023-07-31T05:50:04;3.70;;;2.60;;
79330;SDS011;68797;49.782;19.054;2023-07-31T05:53:19;4.00;;;2.63;;
79330;SDS011;68797;49.782;19.054;2023-07-31T05:56:06;3.92;;;2.10;;
79330;SDS011;68797;49.782;19.054;2023-07-31T05:58:57;4.53;;;2.75;;
79330;SDS011;68797;49.782;19.054;2023-07-31T06:01:55;3.00;;;2.13;;
79330;SDS011;68797;49.782;19.054;2023-07-31T06:04:38;6.20;;;2.42;;
79330;SDS011;68797;49.782;19.054;2023-07-31T06:07:16;2.88;;;2.40;;
79330;SDS011;68797;49.782;19.054;2023-07-31T06:09:46;5.18;;;2.50;;
79330;SDS011;68797;49.782;19.054;2023-07-31T06:12:13;3.33;;;2.28;;
79330;SDS011;68797;49.782;19.054;2023-07-31T06:14:53;3.42;;;2.17;;
79330;SDS011;68797;49.782;19.054;2023-07-31T06:17:21;3.78;;;2.60;;
79330;SDS011;68797;49.782;19.054;2023-07-31T06:19:52;3.42;;;1.98;;
79330;SDS011;68797;49.782;19.054;2023-07-31T06:22:20;7.15;;;2.40;;
79330;SDS011;68797;49.782;19.054;2023-07-31T06:24:48;3.83;;;2.33;;
79330;SDS011;68797;49.782;19.054;2023-07-31T06:27:29;5.05;;;2.00;;
79330;SDS011;68797;49.782;19.054;2023-07-31T06:29:57;4.05;;;2.17;;
79330;SDS011;68797;49.782;19.054;2023-07-31T06:32:25;3.78;;;2.20;;
79330;SDS011;68797;49.782;19.054;2023-07-31T06:34:55;5.28;;;2.30;;
79330;SDS011;68797;49.782;19.054;2023-07-31T06:37:25;4.93;;;2.03;;
79330;SDS011;68797;49.782;19.054;2023-07-31T06:40:02;4.30;;;1.80;;
79330;SDS011;68797;49.782;19.054;2023-07-31T06:42:37;4.85;;;2.38;;
79330;SDS011;68797;49.782;19.054;2023-07-31T06:45:08;3.80;;;2.25;;
79330;SDS011;68797;49.782;19.054;2023-07-31T06:47:42;3.60;;;2.30;;
79330;SDS011;68797;49.782;19.054;2023-07-31T06:50:23;4.18;;;2.72;;
79330;SDS011;68797;49.782;19.054;2023-07-31T06:52:53;3.80;;;2.42;;
79330;SDS011;68797;49.782;19.054;2023-07-31T06:55:21;5.80;;;2.72;;
79330;SDS011;68797;49.782;19.054;2023-07-31T06:57:49;5.03;;;2.33;;
79330;SDS011;68797;49.782;19.054;2023-07-31T07:00:17;2.97;;;2.13;;
79330;SDS011;68797;49.782;19.054;2023-07-31T07:02:47;4.18;;;2.63;;
79330;SDS011;68797;49.782;19.054;2023-07-31T07:05:22;2.97;;;2.15;;
79330;SDS011;68797;49.782;19.054;2023-07-31T07:07:52;3.47;;;2.15;;
79330;SDS011;68797;49.782;19.054;2023-07-31T07:10:18;5.72;;;2.47;;
79330;SDS011;68797;49.782;19.054;2023-07-31T07:12:51;3.78;;;2.28;;
79330;SDS011;68797;49.782;19.054;2023-07-31T07:15:21;3.75;;;2.50;;
79330;SDS011;68797;49.782;19.054;2023-07-31T07:17:53;5.35;;;3.17;;
79330;SDS011;68797;49.782;19.054;2023-07-31T07:20:20;5.15;;;2.47;;
79330;SDS011;68797;49.782;19.054;2023-07-31T07:22:52;5.53;;;2.35;;
79330;SDS011;68797;49.782;19.054;2023-07-31T07:25:25;4.00;;;2.17;;
79330;SDS011;68797;49.782;19.054;2023-07-31T07:30:22;6.90;;;2.60;;
79330;SDS011;68797;49.782;19.054;2023-07-31T07:33:00;6.55;;;2.63;;
79330;SDS011;68797;49.782;19.054;2023-07-31T07:38:05;3.50;;;2.30;;
79330;SDS011;68797;49.782;19.054;2023-07-31T07:40:37;4.30;;;2.20;;
79330;SDS011;68797;49.782;19.054;2023-07-31T07:43:12;5.63;;;2.17;;
79330;SDS011;68797;49.782;19.054;2023-07-31T07:45:40;4.32;;;2.60;;
79330;SDS011;68797;49.782;19.054;2023-07-31T07:48:14;2.78;;;1.85;;
79330;SDS011;68797;49.782;19.054;2023-07-31T07:50:46;5.10;;;2.47;;
79330;SDS011;68797;49.782;19.054;2023-07-31T07:53:21;5.32;;;2.30;;
79330;SDS011;68797;49.782;19.054;2023-07-31T07:55:53;5.80;;;2.30;;
79330;SDS011;68797;49.782;19.054;2023-07-31T07:58:27;8.18;;;2.85;;
79330;SDS011;68797;49.782;19.054;2023-07-31T08:00:58;4.00;;;2.40;;
79330;SDS011;68797;49.782;19.054;2023-07-31T08:03:31;3.42;;;3.00;;
79330;SDS011;68797;49.782;19.054;2023-07-31T08:05:59;4.97;;;2.30;;
79330;SDS011;68797;49.782;19.054;2023-07-31T08:08:35;4.72;;;2.45;;
79330;SDS011;68797;49.782;19.054;2023-07-31T08:11:08;3.33;;;2.50;;
79330;SDS011;68797;49.782;19.054;2023-07-31T08:13:49;3.60;;;2.10;;
79330;SDS011;68797;49.782;19.054;2023-07-31T08:16:27;3.85;;;2.22;;
79330;SDS011;68797;49.782;19.054;2023-07-31T08:19:04;5.35;;;2.33;;
79330;SDS011;68797;49.782;19.054;2023-07-31T08:21:38;5.57;;;2.35;;
79330;SDS011;68797;49.782;19.054;2023-07-31T08:24:07;3.25;;;2.05;;
79330;SDS011;68797;49.782;19.054;2023-07-31T08:26:44;4.60;;;2.35;;
79330;SDS011;68797;49.782;19.054;2023-07-31T08:29:18;5.38;;;2.78;;
79330;SDS011;68797;49.782;19.054;2023-07-31T08:31:48;6.15;;;2.47;;
79330;SDS011;68797;49.782;19.054;2023-07-31T08:34:36;3.00;;;2.05;;
79330;SDS011;68797;49.782;19.054;2023-07-31T08:37:09;6.10;;;2.50;;
79330;SDS011;68797;49.782;19.054;2023-07-31T08:39:42;4.68;;;2.60;;
79330;SDS011;68797;49.782;19.054;2023-07-31T08:42:13;5.47;;;2.42;;
79330;SDS011;68797;49.782;19.054;2023-07-31T08:44:44;5.20;;;2.90;;
79330;SDS011;68797;49.782;19.054;2023-07-31T08:47:15;4.90;;;2.50;;
79330;SDS011;68797;49.782;19.054;2023-07-31T08:49:53;5.78;;;2.53;;
79330;SDS011;68797;49.782;19.054;2023-07-31T08:52:25;5.35;;;2.47;;
79330;SDS011;68797;49.782;19.054;2023-07-31T08:55:03;2.92;;;2.28;;
79330;SDS011;68797;49.782;19.054;2023-07-31T08:57:32;4.53;;;2.28;;
79330;SDS011;68797;49.782;19.054;2023-07-31T09:00:21;4.18;;;2.92;;
79330;SDS011;68797;49.782;19.054;2023-07-31T09:03:15;4.13;;;2.47;;
79330;SDS011;68797;49.782;19.054;2023-07-31T09:05:50;6.22;;;2.42;;
79330;SDS011;68797;49.782;19.054;2023-07-31T09:08:19;3.22;;;2.33;;
79330;SDS011;68797;49.782;19.054;2023-07-31T09:10:49;4.47;;;2.58;;
79330;SDS011;68797;49.782;19.054;2023-07-31T09:13:22;5.28;;;2.40;;
79330;SDS011;68797;49.782;19.054;2023-07-31T09:15:59;4.53;;;2.40;;
79330;SDS011;68797;49.782;19.054;2023-07-31T09:18:29;5.45;;;2.53;;
79330;SDS011;68797;49.782;19.054;2023-07-31T09:21:07;7.65;;;2.38;;
79330;SDS011;68797;49.782;19.054;2023-07-31T09:23:43;3.42;;;2.28;;
79330;SDS011;68797;49.782;19.054;2023-07-31T09:26:14;4.72;;;2.35;;
79330;SDS011;68797;49.782;19.054;2023-07-31T09:29:18;6.35;;;2.40;;
79330;SDS011;68797;49.782;19.054;2023-07-31T09:31:54;5.35;;;2.38;;
79330;SDS011;68797;49.782;19.054;2023-07-31T09:34:30;3.28;;;2.20;;
79330;SDS011;68797;49.782;19.054;2023-07-31T09:37:12;4.80;;;2.50;;
79330;SDS011;68797;49.782;19.054;2023-07-31T09:39:47;4.88;;;2.70;;
79330;SDS011;68797;49.782;19.054;2023-07-31T09:45:20;4.30;;;2.53;;
79330;SDS011;68797;49.782;19.054;2023-07-31T09:48:00;4.82;;;2.47;;
79330;SDS011;68797;49.782;19.054;2023-07-31T09:50:29;3.95;;;2.50;;
79330;SDS011;68797;49.782;19.054;2023-07-31T09:53:14;4.30;;;2.45;;
79330;SDS011;68797;49.782;19.054;2023-07-31T09:55:49;4.53;;;2.60;;
79330;SDS011;68797;49.782;19.054;2023-07-31T09:58:30;6.43;;;2.20;;
79330;SDS011;68797;49.782;19.054;2023-07-31T10:01:12;4.43;;;2.30;;
79330;SDS011;68797;49.782;19.054;2023-07-31T10:03:49;4.43;;;2.38;;
79330;SDS011;68797;49.782;19.054;2023-07-31T10:06:22;5.63;;;2.50;;
79330;SDS011;68797;49.782;19.054;2023-07-31T10:09:00;3.15;;;2.20;;
79330;SDS011;68797;49.782;19.054;2023-07-31T10:11:42;5.60;;;2.20;;
79330;SDS011;68797;49.782;19.054;2023-07-31T10:14:25;4.72;;;2.75;;
79330;SDS011;68797;49.782;19.054;2023-07-31T10:16:59;3.47;;;2.22;;
79330;SDS011;68797;49.782;19.054;2023-07-31T10:19:45;3.38;;;2.20;;
79330;SDS011;68797;49.782;19.054;2023-07-31T10:22:21;5.53;;;2.83;;
79330;SDS011;68797;49.782;19.054;2023-07-31T10:25:08;3.17;;;2.40;;
79330;SDS011;68797;49.782;19.054;2023-07-31T10:27:47;5.05;;;2.63;;
79330;SDS011;68797;49.782;19.054;2023-07-31T10:30:24;4.43;;;2.78;;
79330;SDS011;68797;49.782;19.054;2023-07-31T10:33:01;3.72;;;2.70;;
79330;SDS011;68797;49.782;19.054;2023-07-31T10:36:17;3.20;;;2.63;;
79330;SDS011;68797;49.782;19.054;2023-07-31T10:39:00;4.05;;;2.55;;
79330;SDS011;68797;49.782;19.054;2023-07-31T10:41:36;5.90;;;3.30;;
79330;SDS011;68797;49.782;19.054;2023-07-31T10:44:09;5.18;;;2.30;;
79330;SDS011;68797;49.782;19.054;2023-07-31T10:47:00;5.20;;;2.60;;
79330;SDS011;68797;49.782;19.054;2023-07-31T10:49:27;4.43;;;2.20;;
79330;SDS011;68797;49.782;19.054;2023-07-31T10:52:04;4.30;;;2.90;;
79330;SDS011;68797;49.782;19.054;2023-07-31T10:54:41;6.40;;;2.50;;
79330;SDS011;68797;49.782;19.054;2023-07-31T10:57:25;5.10;;;2.70;;
79330;SDS011;68797;49.782;19.054;2023-07-31T11:00:17;4.30;;;2.53;;
79330;SDS011;68797;49.782;19.054;2023-07-31T11:08:29;5.07;;;2.38;;
79330;SDS011;68797;49.782;19.054;2023-07-31T11:11:12;4.28;;;2.38;;
79330;SDS011;68797;49.782;19.054;2023-07-31T11:13:50;3.85;;;2.55;;
79330;SDS011;68797;49.782;19.054;2023-07-31T11:16:38;3.15;;;2.22;;
79330;SDS011;68797;49.782;19.054;2023-07-31T11:19:14;4.93;;;2.53;;
79330;SDS011;68797;49.782;19.054;2023-07-31T11:22:13;4.45;;;2.40;;
79330;SDS011;68797;49.782;19.054;2023-07-31T11:25:07;2.83;;;2.42;;
79330;SDS011;68797;49.782;19.054;2023-07-31T11:27:54;5.43;;;2.47;;
79330;SDS011;68797;49.782;19.054;2023-07-31T11:30:37;3.38;;;2.33;;
79330;SDS011;68797;49.782;19.054;2023-07-31T11:33:26;4.40;;;2.50;;
79330;SDS011;68797;49.782;19.054;2023-07-31T11:36:06;5.60;;;2.33;;
79330;SDS011;68797;49.782;19.054;2023-07-31T11:38:50;4.15;;;2.33;;
79330;SDS011;68797;49.782;19.054;2023-07-31T11:41:45;3.60;;;2.00;;
79330;SDS011;68797;49.782;19.054;2023-07-31T11:44:20;3.97;;;2.20;;
79330;SDS011;68797;49.782;19.054;2023-07-31T11:46:50;4.93;;;2.22;;
79330;SDS011;68797;49.782;19.054;2023-07-31T11:49:33;4.22;;;2.20;;
79330;SDS011;68797;49.782;19.054;2023-07-31T11:52:21;4.38;;;2.83;;
79330;SDS011;68797;49.782;19.054;2023-07-31T11:55:23;3.30;;;2.03;;
79330;SDS011;68797;49.782;19.054;2023-07-31T11:58:10;3.20;;;2.33;;
79330;SDS011;68797;49.782;19.054;2023-07-31T12:01:02;6.25;;;2.22;;
79330;SDS011;68797;49.782;19.054;2023-07-31T12:04:35;2.53;;;1.73;;
79330;SDS011;68797;49.782;19.054;2023-07-31T12:07:20;2.70;;;1.92;;
79330;SDS011;68797;49.782;19.054;2023-07-31T12:09:59;3.90;;;1.85;;
79330;SDS011;68797;49.782;19.054;2023-07-31T12:12:31;3.88;;;1.90;;
79330;SDS011;68797;49.782;19.054;2023-07-31T12:15:17;2.95;;;1.80;;
79330;SDS011;68797;49.782;19.054;2023-07-31T12:18:05;4.70;;;1.90;;
79330;SDS011;68797;49.782;19.054;2023-07-31T12:20:46;3.85;;;2.30;;
79330;SDS011;68797;49.782;19.054;2023-07-31T12:23:33;6.05;;;2.08;;
79330;SDS011;68797;49.782;19.054;2023-07-31T12:26:17;4.85;;;2.00;;
79330;SDS011;68797;49.782;19.054;2023-07-31T12:29:05;4.75;;;2.13;;
79330;SDS011;68797;49.782;19.054;2023-07-31T12:32:02;3.03;;;1.90;;
79330;SDS011;68797;49.782;19.054;2023-07-31T12:34:49;4.75;;;2.03;;
79330;SDS011;68797;49.782;19.054;2023-07-31T12:37:23;2.70;;;2.03;;
79330;SDS011;68797;49.782;19.054;2023-07-31T12:40:09;4.95;;;2.38;;
79330;SDS011;68797;49.782;19.054;2023-07-31T12:42:50;4.07;;;2.25;;
79330;SDS011;68797;49.782;19.054;2023-07-31T12:45:28;2.92;;;2.10;;
79330;SDS011;68797;49.782;19.054;2023-07-31T12:48:10;4.38;;;1.90;;
79330;SDS011;68797;49.782;19.054;2023-07-31T12:50:44;3.28;;;2.00;;
79330;SDS011;68797;49.782;19.054;2023-07-31T12:53:18;4.07;;;2.05;;
79330;SDS011;68797;49.782;19.054;2023-07-31T12:55:55;5.10;;;2.05;;
79330;SDS011;68797;49.782;19.054;2023-07-31T12:58:39;5.72;;;2.03;;
79330;SDS011;68797;49.782;19.054;2023-07-31T13:01:33;5.85;;;2.10;;
79330;SDS011;68797;49.782;19.054;2023-07-31T13:07:11;4.80;;;1.90;;
79330;SDS011;68797;49.782;19.054;2023-07-31T13:09:52;3.72;;;2.10;;
79330;SDS011;68797;49.782;19.054;2023-07-31T13:12:39;3.35;;;2.00;;
79330;SDS011;68797;49.782;19.054;2023-07-31T13:15:30;3.80;;;1.98;;
79330;SDS011;68797;49.782;19.054;2023-07-31T13:18:16;3.42;;;2.10;;
79330;SDS011;68797;49.782;19.054;2023-07-31T13:21:11;3.85;;;2.20;;
79330;SDS011;68797;49.782;19.054;2023-07-31T13:23:48;3.03;;;2.05;;
79330;SDS011;68797;49.782;19.054;2023-07-31T13:26:23;3.75;;;1.80;;
79330;SDS011;68797;49.782;19.054;2023-07-31T13:29:03;5.75;;;2.95;;
79330;SDS011;68797;49.782;19.054;2023-07-31T13:31:43;5.00;;;2.00;;
79330;SDS011;68797;49.782;19.054;2023-07-31T13:34:30;3.70;;;2.15;;
79330;SDS011;68797;49.782;19.054;2023-07-31T13:37:15;3.50;;;2.00;;
79330;SDS011;68797;49.782;19.054;2023-07-31T13:40:18;3.00;;;1.88;;
79330;SDS011;68797;49.782;19.054;2023-07-31T13:42:57;3.13;;;1.95;;
79330;SDS011;68797;49.782;19.054;2023-07-31T13:45:45;5.20;;;2.30;;
79330;SDS011;68797;49.782;19.054;2023-07-31T13:51:35;6.47;;;1.92;;
79330;SDS011;68797;49.782;19.054;2023-07-31T13:54:16;3.30;;;1.90;;
79330;SDS011;68797;49.782;19.054;2023-07-31T13:59:42;3.65;;;1.98;;
79330;SDS011;68797;49.782;19.054;2023-07-31T14:02:36;5.18;;;1.65;;
79330;SDS011;68797;49.782;19.054;2023-07-31T14:05:20;4.32;;;2.00;;
79330;SDS011;68797;49.782;19.054;2023-07-31T14:08:06;5.15;;;1.98;;
79330;SDS011;68797;49.782;19.054;2023-07-31T14:11:10;2.83;;;1.70;;
79330;SDS011;68797;49.782;19.054;2023-07-31T14:13:51;3.58;;;1.90;;
79330;SDS011;68797;49.782;19.054;2023-07-31T14:16:27;4.07;;;1.90;;
79330;SDS011;68797;49.782;19.054;2023-07-31T14:19:02;7.30;;;2.45;;
79330;SDS011;68797;49.782;19.054;2023-07-31T14:21:38;4.45;;;1.85;;
79330;SDS011;68797;49.782;19.054;2023-07-31T14:24:07;3.75;;;1.70;;
79330;SDS011;68797;49.782;19.054;2023-07-31T14:26:37;7.30;;;1.85;;
79330;SDS011;68797;49.782;19.054;2023-07-31T14:29:06;2.58;;;1.67;;
79330;SDS011;68797;49.782;19.054;2023-07-31T14:31:35;3.97;;;2.00;;
79330;SDS011;68797;49.782;19.054;2023-07-31T14:34:13;3.60;;;1.80;;
79330;SDS011;68797;49.782;19.054;2023-07-31T14:36:54;3.80;;;1.50;;
79330;SDS011;68797;49.782;19.054;2023-07-31T14:39:21;3.65;;;1.90;;
79330;SDS011;68797;49.782;19.054;2023-07-31T14:42:21;2.50;;;1.80;;
79330;SDS011;68797;49.782;19.054;2023-07-31T14:44:52;3.67;;;1.80;;
79330;SDS011;68797;49.782;19.054;2023-07-31T14:47:32;6.30;;;1.77;;
79330;SDS011;68797;49.782;19.054;2023-07-31T14:50:14;4.10;;;1.50;;
79330;SDS011;68797;49.782;19.054;2023-07-31T14:52:51;4.63;;;1.98;;
79330;SDS011;68797;49.782;19.054;2023-07-31T14:55:51;3.22;;;1.60;;
79330;SDS011;68797;49.782;19.054;2023-07-31T14:58:32;3.50;;;1.70;;
79330;SDS011;68797;49.782;19.054;2023-07-31T15:01:16;2.28;;;1.58;;
79330;SDS011;68797;49.782;19.054;2023-07-31T15:03:49;3.10;;;1.65;;
79330;SDS011;68797;49.782;19.054;2023-07-31T15:06:26;3.95;;;1.80;;
79330;SDS011;68797;49.782;19.054;2023-07-31T15:09:01;8.30;;;2.38;;
79330;SDS011;68797;49.782;19.054;2023-07-31T15:11:38;2.75;;;1.70;;
79330;SDS011;68797;49.782;19.054;2023-07-31T15:14:10;3.15;;;1.67;;
79330;SDS011;68797;49.782;19.054;2023-07-31T15:19:54;3.70;;;1.70;;
79330;SDS011;68797;49.782;19.054;2023-07-31T15:22:39;3.42;;;2.00;;
79330;SDS011;68797;49.782;19.054;2023-07-31T15:25:40;3.65;;;2.20;;
79330;SDS011;68797;49.782;19.054;2023-07-31T15:31:01;2.97;;;1.70;;
79330;SDS011;68797;49.782;19.054;2023-07-31T15:33:48;3.45;;;1.60;;
79330;SDS011;68797;49.782;19.054;2023-07-31T15:36:23;2.58;;;1.50;;
79330;SDS011;68797;49.782;19.054;2023-07-31T15:45:27;4.28;;;1.75;;
79330;SDS011;68797;49.782;19.054;2023-07-31T15:48:09;2.65;;;1.73;;
79330;SDS011;68797;49.782;19.054;2023-07-31T15:51:07;3.13;;;2.28;;
79330;SDS011;68797;49.782;19.054;2023-07-31T15:54:00;5.00;;;2.03;;
79330;SDS011;68797;49.782;19.054;2023-07-31T15:56:43;3.22;;;1.75;;
79330;SDS011;68797;49.782;19.054;2023-07-31T15:59:30;3.33;;;1.70;;
79330;SDS011;68797;49.782;19.054;2023-07-31T16:02:14;3.92;;;1.80;;
79330;SDS011;68797;49.782;19.054;2023-07-31T16:04:51;4.18;;;2.05;;
79330;SDS011;68797;49.782;19.054;2023-07-31T16:07:24;3.10;;;1.92;;
79330;SDS011;68797;49.782;19.054;2023-07-31T16:09:53;4.07;;;1.90;;
79330;SDS011;68797;49.782;19.054;2023-07-31T16:12:24;3.75;;;2.00;;
79330;SDS011;68797;49.782;19.054;2023-07-31T16:14:51;4.63;;;1.83;;
79330;SDS011;68797;49.782;19.054;2023-07-31T16:17:23;3.97;;;1.70;;
79330;SDS011;68797;49.782;19.054;2023-07-31T16:19:57;3.63;;;1.92;;
79330;SDS011;68797;49.782;19.054;2023-07-31T16:22:30;1.90;;;1.58;;
79330;SDS011;68797;49.782;19.054;2023-07-31T16:24:59;3.20;;;1.52;;
79330;SDS011;68797;49.782;19.054;2023-07-31T16:27:27;2.63;;;1.80;;
79330;SDS011;68797;49.782;19.054;2023-07-31T16:30:08;3.22;;;1.50;;
79330;SDS011;68797;49.782;19.054;2023-07-31T16:32:48;4.63;;;2.10;;
79330;SDS011;68797;49.782;19.054;2023-07-31T16:35:15;3.90;;;1.58;;
79330;SDS011;68797;49.782;19.054;2023-07-31T16:37:46;4.95;;;2.17;;
79330;SDS011;68797;49.782;19.054;2023-07-31T16:40:25;2.28;;;1.63;;
79330;SDS011;68797;49.782;19.054;2023-07-31T16:42:56;2.97;;;1.80;;
79330;SDS011;68797;49.782;19.054;2023-07-31T16:45:29;4.80;;;1.98;;
79330;SDS011;68797;49.782;19.054;2023-07-31T16:48:10;3.97;;;2.65;;
79330;SDS011;68797;49.782;19.054;2023-07-31T16:50:43;5.70;;;2.50;;
79330;SDS011;68797;49.782;19.054;2023-07-31T16:53:12;12.10;;;7.32;;
79330;SDS011;68797;49.782;19.054;2023-07-31T16:55:45;9.25;;;5.93;;